sensor_id;sensor_type;location;lat;lon;timestamp;P1;durP1;ratioP1;P2;durP2;ratioP2
16667;SDS011;8447;52.630;4.734;2023-04-06T00:00:55;12.80;;;7.90;;
16667;SDS011;8447;52.630;4.734;2023-04-06T00:03:22;13.17;;;8.47;;
16667;SDS011;8447;52.630;4.734;2023-04-06T00:05:48;12.03;;;7.60;;
16667;SDS011;8447;52.630;4.734;2023-04-06T00:08:14;16.70;;;8.63;;
16667;SDS011;8447;52.630;4.734;2023-04-06T00:10:42;14.77;;;8.50;;
16667;SDS011;8447;52.630;4.734;2023-04-06T00:13:09;15.73;;;7.20;;
16667;SDS011;8447;52.630;4.734;2023-04-06T00:15:35;12.03;;;7.17;;
16667;SDS011;8447;52.630;4.734;2023-04-06T00:18:02;10.67;;;7.63;;
16667;SDS011;8447;52.630;4.734;2023-04-06T00:20:28;14.43;;;7.80;;
16667;SDS011;8447;52.630;4.734;2023-04-06T00:22:55;13.90;;;7.53;;
16667;SDS011;8447;52.630;4.734;2023-04-06T00:25:21;12.67;;;7.23;;
16667;SDS011;8447;52.630;4.734;2023-04-06T00:27:49;12.33;;;8.23;;
16667;SDS011;8447;52.630;4.734;2023-04-06T00:30:16;13.27;;;8.13;;
16667;SDS011;8447;52.630;4.734;2023-04-06T00:32:42;12.97;;;8.40;;
16667;SDS011;8447;52.630;4.734;2023-04-06T00:35:08;12.33;;;8.97;;
16667;SDS011;8447;52.630;4.734;2023-04-06T00:37:35;9.53;;;6.77;;
16667;SDS011;8447;52.630;4.734;2023-04-06T00:40:01;12.43;;;8.27;;
16667;SDS011;8447;52.630;4.734;2023-04-06T00:42:28;12.23;;;8.53;;
16667;SDS011;8447;52.630;4.734;2023-04-06T00:44:56;15.20;;;8.67;;
16667;SDS011;8447;52.630;4.734;2023-04-06T00:47:23;13.77;;;8.63;;
16667;SDS011;8447;52.630;4.734;2023-04-06T00:49:50;12.83;;;8.50;;
16667;SDS011;8447;52.630;4.734;2023-04-06T00:52:16;14.43;;;7.23;;
16667;SDS011;8447;52.630;4.734;2023-04-06T00:54:43;17.83;;;7.90;;
16667;SDS011;8447;52.630;4.734;2023-04-06T00:57:10;16.07;;;9.20;;
16667;SDS011;8447;52.630;4.734;2023-04-06T00:59:37;11.80;;;7.43;;
16667;SDS011;8447;52.630;4.734;2023-04-06T01:02:05;11.73;;;8.10;;
16667;SDS011;8447;52.630;4.734;2023-04-06T01:04:32;13.83;;;8.30;;
16667;SDS011;8447;52.630;4.734;2023-04-06T01:06:58;13.13;;;8.13;;
16667;SDS011;8447;52.630;4.734;2023-04-06T01:09:25;11.77;;;7.80;;
16667;SDS011;8447;52.630;4.734;2023-04-06T01:11:53;15.00;;;9.53;;
16667;SDS011;8447;52.630;4.734;2023-04-06T01:14:20;13.90;;;8.80;;
16667;SDS011;8447;52.630;4.734;2023-04-06T01:16:47;13.03;;;8.10;;
16667;SDS011;8447;52.630;4.734;2023-04-06T01:19:15;13.50;;;8.27;;
16667;SDS011;8447;52.630;4.734;2023-04-06T01:21:41;11.73;;;7.40;;
16667;SDS011;8447;52.630;4.734;2023-04-06T01:24:09;10.83;;;8.00;;
16667;SDS011;8447;52.630;4.734;2023-04-06T01:26:36;11.47;;;7.67;;
16667;SDS011;8447;52.630;4.734;2023-04-06T01:29:03;15.07;;;9.07;;
16667;SDS011;8447;52.630;4.734;2023-04-06T01:31:29;11.87;;;8.00;;
16667;SDS011;8447;52.630;4.734;2023-04-06T01:33:56;13.87;;;8.37;;
16667;SDS011;8447;52.630;4.734;2023-04-06T01:36:22;11.03;;;7.73;;
16667;SDS011;8447;52.630;4.734;2023-04-06T01:38:48;11.97;;;7.87;;
16667;SDS011;8447;52.630;4.734;2023-04-06T01:41:16;12.40;;;8.23;;
16667;SDS011;8447;52.630;4.734;2023-04-06T01:43:43;13.43;;;8.37;;
16667;SDS011;8447;52.630;4.734;2023-04-06T01:46:09;11.90;;;7.83;;
16667;SDS011;8447;52.630;4.734;2023-04-06T01:48:36;14.40;;;6.80;;
16667;SDS011;8447;52.630;4.734;2023-04-06T01:51:02;10.40;;;7.00;;
16667;SDS011;8447;52.630;4.734;2023-04-06T01:53:29;11.50;;;7.03;;
16667;SDS011;8447;52.630;4.734;2023-04-06T01:55:55;12.97;;;7.80;;
16667;SDS011;8447;52.630;4.734;2023-04-06T01:58:23;12.63;;;7.10;;
16667;SDS011;8447;52.630;4.734;2023-04-06T02:00:50;15.17;;;7.53;;
16667;SDS011;8447;52.630;4.734;2023-04-06T02:03:16;11.93;;;6.40;;
16667;SDS011;8447;52.630;4.734;2023-04-06T02:05:43;10.83;;;7.20;;
16667;SDS011;8447;52.630;4.734;2023-04-06T02:08:09;9.60;;;7.07;;
16667;SDS011;8447;52.630;4.734;2023-04-06T02:10:36;10.10;;;6.83;;
16667;SDS011;8447;52.630;4.734;2023-04-06T02:13:02;10.40;;;7.37;;
16667;SDS011;8447;52.630;4.734;2023-04-06T02:15:31;10.57;;;6.93;;
16667;SDS011;8447;52.630;4.734;2023-04-06T02:17:58;12.13;;;6.67;;
16667;SDS011;8447;52.630;4.734;2023-04-06T02:20:25;10.80;;;6.90;;
16667;SDS011;8447;52.630;4.734;2023-04-06T02:22:51;11.30;;;7.03;;
16667;SDS011;8447;52.630;4.734;2023-04-06T02:25:17;11.80;;;6.63;;
16667;SDS011;8447;52.630;4.734;2023-04-06T02:27:44;10.37;;;6.90;;
16667;SDS011;8447;52.630;4.734;2023-04-06T02:30:10;9.60;;;6.43;;
16667;SDS011;8447;52.630;4.734;2023-04-06T02:32:38;12.27;;;7.57;;
16667;SDS011;8447;52.630;4.734;2023-04-06T02:35:05;11.00;;;7.30;;
16667;SDS011;8447;52.630;4.734;2023-04-06T02:37:31;10.00;;;6.40;;
16667;SDS011;8447;52.630;4.734;2023-04-06T02:39:58;11.97;;;6.73;;
16667;SDS011;8447;52.630;4.734;2023-04-06T02:42:24;10.00;;;6.47;;
16667;SDS011;8447;52.630;4.734;2023-04-06T02:44:51;11.90;;;6.73;;
16667;SDS011;8447;52.630;4.734;2023-04-06T02:47:17;8.47;;;6.17;;
16667;SDS011;8447;52.630;4.734;2023-04-06T02:49:45;9.07;;;6.77;;
16667;SDS011;8447;52.630;4.734;2023-04-06T02:52:11;10.67;;;6.77;;
16667;SDS011;8447;52.630;4.734;2023-04-06T02:54:38;9.97;;;7.30;;
16667;SDS011;8447;52.630;4.734;2023-04-06T02:57:04;9.97;;;6.77;;
16667;SDS011;8447;52.630;4.734;2023-04-06T02:59:31;12.63;;;6.73;;
16667;SDS011;8447;52.630;4.734;2023-04-06T03:01:57;9.50;;;6.60;;
16667;SDS011;8447;52.630;4.734;2023-04-06T03:04:23;8.93;;;6.30;;
16667;SDS011;8447;52.630;4.734;2023-04-06T03:06:52;11.10;;;6.80;;
16667;SDS011;8447;52.630;4.734;2023-04-06T03:09:18;11.37;;;6.53;;
16667;SDS011;8447;52.630;4.734;2023-04-06T03:11:45;12.80;;;6.73;;
16667;SDS011;8447;52.630;4.734;2023-04-06T03:14:11;9.63;;;6.23;;
16667;SDS011;8447;52.630;4.734;2023-04-06T03:16:38;10.17;;;6.90;;
16667;SDS011;8447;52.630;4.734;2023-04-06T03:19:04;13.33;;;6.77;;
16667;SDS011;8447;52.630;4.734;2023-04-06T03:21:30;10.17;;;6.37;;
16667;SDS011;8447;52.630;4.734;2023-04-06T03:23:58;12.07;;;6.43;;
16667;SDS011;8447;52.630;4.734;2023-04-06T03:26:25;11.43;;;7.07;;
16667;SDS011;8447;52.630;4.734;2023-04-06T03:28:51;8.70;;;6.40;;
16667;SDS011;8447;52.630;4.734;2023-04-06T03:31:17;10.03;;;7.17;;
16667;SDS011;8447;52.630;4.734;2023-04-06T03:33:44;13.00;;;6.60;;
16667;SDS011;8447;52.630;4.734;2023-04-06T03:36:10;11.07;;;6.30;;
16667;SDS011;8447;52.630;4.734;2023-04-06T03:38:37;9.63;;;6.47;;
16667;SDS011;8447;52.630;4.734;2023-04-06T03:41:05;9.43;;;5.77;;
16667;SDS011;8447;52.630;4.734;2023-04-06T03:43:31;8.37;;;6.33;;
16667;SDS011;8447;52.630;4.734;2023-04-06T03:45:57;10.43;;;6.77;;
16667;SDS011;8447;52.630;4.734;2023-04-06T03:48:24;8.60;;;6.33;;
16667;SDS011;8447;52.630;4.734;2023-04-06T03:50:50;9.87;;;5.90;;
16667;SDS011;8447;52.630;4.734;2023-04-06T03:53:17;8.57;;;6.40;;
16667;SDS011;8447;52.630;4.734;2023-04-06T03:55:43;10.83;;;5.87;;
16667;SDS011;8447;52.630;4.734;2023-04-06T03:58:11;9.67;;;6.70;;
16667;SDS011;8447;52.630;4.734;2023-04-06T04:00:37;11.03;;;6.60;;
16667;SDS011;8447;52.630;4.734;2023-04-06T04:03:04;10.70;;;6.20;;
16667;SDS011;8447;52.630;4.734;2023-04-06T04:05:30;9.60;;;6.93;;
16667;SDS011;8447;52.630;4.734;2023-04-06T04:07:56;9.23;;;6.23;;
16667;SDS011;8447;52.630;4.734;2023-04-06T04:10:23;10.03;;;6.37;;
16667;SDS011;8447;52.630;4.734;2023-04-06T04:12:49;10.83;;;6.70;;
16667;SDS011;8447;52.630;4.734;2023-04-06T04:15:17;10.93;;;7.00;;
16667;SDS011;8447;52.630;4.734;2023-04-06T04:17:44;9.43;;;6.37;;
16667;SDS011;8447;52.630;4.734;2023-04-06T04:20:11;8.83;;;6.03;;
16667;SDS011;8447;52.630;4.734;2023-04-06T04:22:38;11.20;;;6.73;;
16667;SDS011;8447;52.630;4.734;2023-04-06T04:25:05;10.20;;;6.50;;
16667;SDS011;8447;52.630;4.734;2023-04-06T04:27:31;13.07;;;6.93;;
16667;SDS011;8447;52.630;4.734;2023-04-06T04:29:58;12.17;;;6.70;;
16667;SDS011;8447;52.630;4.734;2023-04-06T04:32:26;10.43;;;6.50;;
16667;SDS011;8447;52.630;4.734;2023-04-06T04:34:52;13.83;;;7.30;;
16667;SDS011;8447;52.630;4.734;2023-04-06T04:37:19;12.43;;;7.77;;
16667;SDS011;8447;52.630;4.734;2023-04-06T04:39:45;10.93;;;6.97;;
16667;SDS011;8447;52.630;4.734;2023-04-06T04:42:12;12.43;;;7.00;;
16667;SDS011;8447;52.630;4.734;2023-04-06T04:44:38;10.83;;;6.30;;
16667;SDS011;8447;52.630;4.734;2023-04-06T04:47:05;18.33;;;6.23;;
16667;SDS011;8447;52.630;4.734;2023-04-06T04:49:32;11.60;;;7.37;;
16667;SDS011;8447;52.630;4.734;2023-04-06T04:51:59;10.40;;;7.07;;
16667;SDS011;8447;52.630;4.734;2023-04-06T04:54:26;12.90;;;6.73;;
16667;SDS011;8447;52.630;4.734;2023-04-06T04:56:52;9.50;;;7.10;;
16667;SDS011;8447;52.630;4.734;2023-04-06T04:59:18;13.03;;;7.17;;
16667;SDS011;8447;52.630;4.734;2023-04-06T05:01:45;10.27;;;7.20;;
16667;SDS011;8447;52.630;4.734;2023-04-06T05:04:11;11.50;;;7.70;;
16667;SDS011;8447;52.630;4.734;2023-04-06T05:06:39;9.27;;;7.23;;
16667;SDS011;8447;52.630;4.734;2023-04-06T05:09:05;11.90;;;6.50;;
16667;SDS011;8447;52.630;4.734;2023-04-06T05:11:32;10.93;;;7.40;;
16667;SDS011;8447;52.630;4.734;2023-04-06T05:13:58;9.90;;;7.20;;
16667;SDS011;8447;52.630;4.734;2023-04-06T05:16:25;13.97;;;7.53;;
16667;SDS011;8447;52.630;4.734;2023-04-06T05:18:51;10.70;;;6.97;;
16667;SDS011;8447;52.630;4.734;2023-04-06T05:21:18;12.83;;;7.17;;
16667;SDS011;8447;52.630;4.734;2023-04-06T05:23:46;8.83;;;6.80;;
16667;SDS011;8447;52.630;4.734;2023-04-06T05:26:13;9.73;;;6.60;;
16667;SDS011;8447;52.630;4.734;2023-04-06T05:28:39;10.60;;;7.07;;
16667;SDS011;8447;52.630;4.734;2023-04-06T05:31:07;12.10;;;7.27;;
16667;SDS011;8447;52.630;4.734;2023-04-06T05:33:34;9.00;;;6.83;;
16667;SDS011;8447;52.630;4.734;2023-04-06T05:36:00;8.43;;;6.57;;
16667;SDS011;8447;52.630;4.734;2023-04-06T05:38:26;10.40;;;7.30;;
16667;SDS011;8447;52.630;4.734;2023-04-06T05:40:54;10.87;;;6.63;;
16667;SDS011;8447;52.630;4.734;2023-04-06T05:43:21;7.77;;;6.17;;
16667;SDS011;8447;52.630;4.734;2023-04-06T05:45:47;14.33;;;9.70;;
16667;SDS011;8447;52.630;4.734;2023-04-06T05:48:14;10.73;;;6.70;;
16667;SDS011;8447;52.630;4.734;2023-04-06T05:50:40;10.73;;;7.63;;
16667;SDS011;8447;52.630;4.734;2023-04-06T05:53:06;10.77;;;7.27;;
16667;SDS011;8447;52.630;4.734;2023-04-06T05:55:33;9.77;;;7.17;;
16667;SDS011;8447;52.630;4.734;2023-04-06T05:58:01;10.70;;;7.00;;
16667;SDS011;8447;52.630;4.734;2023-04-06T06:00:27;12.20;;;8.30;;
16667;SDS011;8447;52.630;4.734;2023-04-06T06:02:53;13.37;;;6.50;;
16667;SDS011;8447;52.630;4.734;2023-04-06T06:05:20;11.10;;;7.03;;
16667;SDS011;8447;52.630;4.734;2023-04-06T06:07:46;13.73;;;7.53;;
16667;SDS011;8447;52.630;4.734;2023-04-06T06:10:13;11.23;;;7.50;;
16667;SDS011;8447;52.630;4.734;2023-04-06T06:12:39;15.37;;;8.27;;
16667;SDS011;8447;52.630;4.734;2023-04-06T06:15:07;14.17;;;7.80;;
16667;SDS011;8447;52.630;4.734;2023-04-06T06:17:34;10.83;;;6.43;;
16667;SDS011;8447;52.630;4.734;2023-04-06T06:20:00;12.23;;;7.93;;
16667;SDS011;8447;52.630;4.734;2023-04-06T06:22:27;14.53;;;8.17;;
16667;SDS011;8447;52.630;4.734;2023-04-06T06:24:53;10.87;;;7.47;;
16667;SDS011;8447;52.630;4.734;2023-04-06T06:27:20;16.17;;;9.30;;
16667;SDS011;8447;52.630;4.734;2023-04-06T06:29:46;14.13;;;7.70;;
16667;SDS011;8447;52.630;4.734;2023-04-06T06:32:14;11.40;;;7.23;;
16667;SDS011;8447;52.630;4.734;2023-04-06T06:34:41;14.03;;;8.07;;
16667;SDS011;8447;52.630;4.734;2023-04-06T06:37:07;13.67;;;8.37;;
16667;SDS011;8447;52.630;4.734;2023-04-06T06:39:34;15.73;;;9.10;;
16667;SDS011;8447;52.630;4.734;2023-04-06T06:42:00;13.97;;;8.77;;
16667;SDS011;8447;52.630;4.734;2023-04-06T06:44:26;14.43;;;9.40;;
16667;SDS011;8447;52.630;4.734;2023-04-06T06:46:53;17.23;;;9.40;;
16667;SDS011;8447;52.630;4.734;2023-04-06T06:49:21;13.87;;;9.67;;
16667;SDS011;8447;52.630;4.734;2023-04-06T06:51:47;14.30;;;9.20;;
16667;SDS011;8447;52.630;4.734;2023-04-06T06:54:14;16.53;;;9.83;;
16667;SDS011;8447;52.630;4.734;2023-04-06T06:56:40;15.13;;;8.93;;
16667;SDS011;8447;52.630;4.734;2023-04-06T06:59:06;14.97;;;8.60;;
16667;SDS011;8447;52.630;4.734;2023-04-06T07:01:33;18.87;;;9.50;;
16667;SDS011;8447;52.630;4.734;2023-04-06T07:03:59;16.07;;;9.53;;
16667;SDS011;8447;52.630;4.734;2023-04-06T07:06:27;18.93;;;9.97;;
16667;SDS011;8447;52.630;4.734;2023-04-06T07:08:53;16.17;;;10.10;;
16667;SDS011;8447;52.630;4.734;2023-04-06T07:11:20;17.73;;;8.93;;
16667;SDS011;8447;52.630;4.734;2023-04-06T07:13:46;14.97;;;10.93;;
16667;SDS011;8447;52.630;4.734;2023-04-06T07:16:13;15.03;;;10.23;;
16667;SDS011;8447;52.630;4.734;2023-04-06T07:18:39;16.97;;;10.67;;
16667;SDS011;8447;52.630;4.734;2023-04-06T07:21:06;16.77;;;10.60;;
16667;SDS011;8447;52.630;4.734;2023-04-06T07:23:33;16.50;;;10.87;;
16667;SDS011;8447;52.630;4.734;2023-04-06T07:26:00;17.77;;;10.87;;
16667;SDS011;8447;52.630;4.734;2023-04-06T07:28:26;23.63;;;11.90;;
16667;SDS011;8447;52.630;4.734;2023-04-06T07:30:53;19.97;;;10.70;;
16667;SDS011;8447;52.630;4.734;2023-04-06T07:33:19;14.63;;;9.73;;
16667;SDS011;8447;52.630;4.734;2023-04-06T07:35:46;17.23;;;11.30;;
16667;SDS011;8447;52.630;4.734;2023-04-06T07:38:12;13.97;;;10.20;;
16667;SDS011;8447;52.630;4.734;2023-04-06T07:40:40;16.07;;;10.80;;
16667;SDS011;8447;52.630;4.734;2023-04-06T07:43:07;16.53;;;11.93;;
16667;SDS011;8447;52.630;4.734;2023-04-06T07:45:33;17.83;;;11.83;;
16667;SDS011;8447;52.630;4.734;2023-04-06T07:48:00;17.07;;;12.40;;
16667;SDS011;8447;52.630;4.734;2023-04-06T07:50:26;18.93;;;12.70;;
16667;SDS011;8447;52.630;4.734;2023-04-06T07:52:52;20.33;;;12.00;;
16667;SDS011;8447;52.630;4.734;2023-04-06T07:55:19;21.03;;;14.23;;
16667;SDS011;8447;52.630;4.734;2023-04-06T07:57:47;20.93;;;13.30;;
16667;SDS011;8447;52.630;4.734;2023-04-06T08:00:14;16.00;;;12.13;;
16667;SDS011;8447;52.630;4.734;2023-04-06T08:02:40;18.77;;;12.00;;
16667;SDS011;8447;52.630;4.734;2023-04-06T08:05:07;18.67;;;12.03;;
16667;SDS011;8447;52.630;4.734;2023-04-06T08:07:33;16.60;;;11.13;;
16667;SDS011;8447;52.630;4.734;2023-04-06T08:10:00;19.73;;;13.50;;
16667;SDS011;8447;52.630;4.734;2023-04-06T08:12:27;17.90;;;11.40;;
16667;SDS011;8447;52.630;4.734;2023-04-06T08:14:54;19.30;;;13.33;;
16667;SDS011;8447;52.630;4.734;2023-04-06T08:17:21;18.23;;;12.67;;
16667;SDS011;8447;52.630;4.734;2023-04-06T08:19:48;18.50;;;12.90;;
16667;SDS011;8447;52.630;4.734;2023-04-06T08:22:14;21.50;;;13.13;;
16667;SDS011;8447;52.630;4.734;2023-04-06T08:24:41;21.07;;;13.73;;
16667;SDS011;8447;52.630;4.734;2023-04-06T08:27:07;18.67;;;12.77;;
16667;SDS011;8447;52.630;4.734;2023-04-06T08:29:34;23.30;;;15.00;;
16667;SDS011;8447;52.630;4.734;2023-04-06T08:32:02;22.73;;;14.87;;
16667;SDS011;8447;52.630;4.734;2023-04-06T08:34:30;19.17;;;13.27;;
16667;SDS011;8447;52.630;4.734;2023-04-06T08:36:56;23.27;;;15.73;;
16667;SDS011;8447;52.630;4.734;2023-04-06T08:39:23;21.80;;;14.13;;
16667;SDS011;8447;52.630;4.734;2023-04-06T08:41:50;20.60;;;13.80;;
16667;SDS011;8447;52.630;4.734;2023-04-06T08:44:18;20.90;;;13.77;;
16667;SDS011;8447;52.630;4.734;2023-04-06T08:46:44;24.93;;;15.43;;
16667;SDS011;8447;52.630;4.734;2023-04-06T08:49:12;17.83;;;12.40;;
16667;SDS011;8447;52.630;4.734;2023-04-06T08:51:40;20.00;;;13.60;;
16667;SDS011;8447;52.630;4.734;2023-04-06T08:54:08;19.13;;;13.17;;
16667;SDS011;8447;52.630;4.734;2023-04-06T08:56:36;18.77;;;12.60;;
16667;SDS011;8447;52.630;4.734;2023-04-06T08:59:03;21.30;;;13.03;;
16667;SDS011;8447;52.630;4.734;2023-04-06T09:01:30;20.23;;;12.30;;
16667;SDS011;8447;52.630;4.734;2023-04-06T09:03:59;20.80;;;13.20;;
16667;SDS011;8447;52.630;4.734;2023-04-06T09:06:27;19.60;;;12.87;;
16667;SDS011;8447;52.630;4.734;2023-04-06T09:08:54;22.47;;;13.80;;
16667;SDS011;8447;52.630;4.734;2023-04-06T09:11:21;23.57;;;13.97;;
16667;SDS011;8447;52.630;4.734;2023-04-06T09:13:48;18.33;;;12.77;;
16667;SDS011;8447;52.630;4.734;2023-04-06T09:16:15;20.00;;;15.00;;
16667;SDS011;8447;52.630;4.734;2023-04-06T09:18:41;18.43;;;12.80;;
16667;SDS011;8447;52.630;4.734;2023-04-06T09:21:08;18.63;;;12.53;;
16667;SDS011;8447;52.630;4.734;2023-04-06T09:23:36;17.70;;;11.73;;
16667;SDS011;8447;52.630;4.734;2023-04-06T09:26:04;18.80;;;11.93;;
16667;SDS011;8447;52.630;4.734;2023-04-06T09:28:40;15.80;;;11.57;;
16667;SDS011;8447;52.630;4.734;2023-04-06T09:31:06;17.27;;;11.30;;
16667;SDS011;8447;52.630;4.734;2023-04-06T09:33:36;18.33;;;11.40;;
16667;SDS011;8447;52.630;4.734;2023-04-06T09:36:03;15.73;;;10.83;;
16667;SDS011;8447;52.630;4.734;2023-04-06T09:38:30;18.00;;;11.47;;
16667;SDS011;8447;52.630;4.734;2023-04-06T09:40:58;17.27;;;8.00;;
16667;SDS011;8447;52.630;4.734;2023-04-06T09:43:24;15.63;;;11.00;;
16667;SDS011;8447;52.630;4.734;2023-04-06T09:45:51;15.70;;;10.97;;
16667;SDS011;8447;52.630;4.734;2023-04-06T09:48:17;15.70;;;10.60;;
16667;SDS011;8447;52.630;4.734;2023-04-06T09:50:45;18.37;;;10.67;;
16667;SDS011;8447;52.630;4.734;2023-04-06T09:53:11;16.40;;;11.33;;
16667;SDS011;8447;52.630;4.734;2023-04-06T09:55:40;17.03;;;11.17;;
16667;SDS011;8447;52.630;4.734;2023-04-06T09:58:09;19.63;;;11.33;;
16667;SDS011;8447;52.630;4.734;2023-04-06T10:00:40;17.50;;;10.50;;
16667;SDS011;8447;52.630;4.734;2023-04-06T10:03:07;16.93;;;10.93;;
16667;SDS011;8447;52.630;4.734;2023-04-06T10:05:37;15.20;;;9.20;;
16667;SDS011;8447;52.630;4.734;2023-04-06T10:08:08;14.43;;;9.87;;
16667;SDS011;8447;52.630;4.734;2023-04-06T10:10:35;14.80;;;10.20;;
16667;SDS011;8447;52.630;4.734;2023-04-06T10:13:02;17.90;;;10.57;;
16667;SDS011;8447;52.630;4.734;2023-04-06T10:15:30;14.60;;;9.40;;
16667;SDS011;8447;52.630;4.734;2023-04-06T10:17:56;15.63;;;10.07;;
16667;SDS011;8447;52.630;4.734;2023-04-06T10:20:25;14.30;;;10.23;;
16667;SDS011;8447;52.630;4.734;2023-04-06T10:22:55;15.33;;;11.33;;
16667;SDS011;8447;52.630;4.734;2023-04-06T10:25:26;12.77;;;10.27;;
16667;SDS011;8447;52.630;4.734;2023-04-06T10:27:58;16.70;;;12.20;;
16667;SDS011;8447;52.630;4.734;2023-04-06T10:30:25;13.97;;;10.33;;
16667;SDS011;8447;52.630;4.734;2023-04-06T10:32:53;15.67;;;10.73;;
16667;SDS011;8447;52.630;4.734;2023-04-06T10:35:19;16.33;;;11.53;;
16667;SDS011;8447;52.630;4.734;2023-04-06T10:37:46;14.47;;;10.17;;
16667;SDS011;8447;52.630;4.734;2023-04-06T10:40:17;13.17;;;9.30;;
16667;SDS011;8447;52.630;4.734;2023-04-06T10:42:44;12.93;;;9.43;;
16667;SDS011;8447;52.630;4.734;2023-04-06T10:45:18;16.67;;;10.93;;
16667;SDS011;8447;52.630;4.734;2023-04-06T10:47:45;15.13;;;8.90;;
16667;SDS011;8447;52.630;4.734;2023-04-06T10:50:12;12.27;;;8.93;;
16667;SDS011;8447;52.630;4.734;2023-04-06T10:52:40;15.00;;;10.03;;
16667;SDS011;8447;52.630;4.734;2023-04-06T10:55:07;13.57;;;9.87;;
16667;SDS011;8447;52.630;4.734;2023-04-06T10:57:34;13.83;;;9.40;;
16667;SDS011;8447;52.630;4.734;2023-04-06T11:00:03;14.30;;;8.53;;
16667;SDS011;8447;52.630;4.734;2023-04-06T11:02:29;14.17;;;7.80;;
16667;SDS011;8447;52.630;4.734;2023-04-06T11:04:56;13.80;;;8.43;;
16667;SDS011;8447;52.630;4.734;2023-04-06T11:07:24;12.77;;;9.53;;
16667;SDS011;8447;52.630;4.734;2023-04-06T11:09:51;15.33;;;10.60;;
16667;SDS011;8447;52.630;4.734;2023-04-06T11:12:21;13.87;;;9.47;;
16667;SDS011;8447;52.630;4.734;2023-04-06T11:14:57;14.80;;;9.57;;
16667;SDS011;8447;52.630;4.734;2023-04-06T11:17:27;17.80;;;10.83;;
16667;SDS011;8447;52.630;4.734;2023-04-06T11:19:54;13.90;;;9.00;;
16667;SDS011;8447;52.630;4.734;2023-04-06T11:22:21;9.60;;;5.50;;
16667;SDS011;8447;52.630;4.734;2023-04-06T11:24:48;12.13;;;7.23;;
16667;SDS011;8447;52.630;4.734;2023-04-06T11:27:15;11.00;;;6.00;;
16667;SDS011;8447;52.630;4.734;2023-04-06T11:29:42;11.33;;;7.00;;
16667;SDS011;8447;52.630;4.734;2023-04-06T11:32:08;11.00;;;7.60;;
16667;SDS011;8447;52.630;4.734;2023-04-06T11:34:36;9.90;;;5.87;;
16667;SDS011;8447;52.630;4.734;2023-04-06T11:37:04;7.30;;;5.43;;
16667;SDS011;8447;52.630;4.734;2023-04-06T11:39:37;7.53;;;4.57;;
16667;SDS011;8447;52.630;4.734;2023-04-06T11:42:05;6.47;;;4.43;;
16667;SDS011;8447;52.630;4.734;2023-04-06T11:44:32;7.90;;;5.07;;
16667;SDS011;8447;52.630;4.734;2023-04-06T11:47:00;7.00;;;4.50;;
16667;SDS011;8447;52.630;4.734;2023-04-06T11:49:26;7.03;;;6.10;;
16667;SDS011;8447;52.630;4.734;2023-04-06T11:51:53;6.40;;;5.67;;
16667;SDS011;8447;52.630;4.734;2023-04-06T11:54:28;9.50;;;6.23;;
16667;SDS011;8447;52.630;4.734;2023-04-06T11:56:55;11.77;;;8.07;;
16667;SDS011;8447;52.630;4.734;2023-04-06T11:59:23;10.30;;;7.97;;
16667;SDS011;8447;52.630;4.734;2023-04-06T12:01:49;6.07;;;5.03;;
16667;SDS011;8447;52.630;4.734;2023-04-06T12:04:17;9.60;;;5.97;;
16667;SDS011;8447;52.630;4.734;2023-04-06T12:06:43;6.97;;;5.97;;
16667;SDS011;8447;52.630;4.734;2023-04-06T12:09:10;5.97;;;3.93;;
16667;SDS011;8447;52.630;4.734;2023-04-06T12:11:36;8.50;;;4.90;;
16667;SDS011;8447;52.630;4.734;2023-04-06T12:14:03;6.53;;;4.40;;
16667;SDS011;8447;52.630;4.734;2023-04-06T12:16:31;6.43;;;4.40;;
16667;SDS011;8447;52.630;4.734;2023-04-06T12:18:58;5.47;;;4.93;;
16667;SDS011;8447;52.630;4.734;2023-04-06T12:21:26;6.37;;;4.83;;
16667;SDS011;8447;52.630;4.734;2023-04-06T12:23:52;4.53;;;3.77;;
16667;SDS011;8447;52.630;4.734;2023-04-06T12:26:19;5.27;;;4.20;;
16667;SDS011;8447;52.630;4.734;2023-04-06T12:28:45;4.50;;;3.53;;
16667;SDS011;8447;52.630;4.734;2023-04-06T12:31:14;5.13;;;4.10;;
16667;SDS011;8447;52.630;4.734;2023-04-06T12:33:42;5.30;;;4.40;;
16667;SDS011;8447;52.630;4.734;2023-04-06T12:36:11;7.50;;;3.80;;
16667;SDS011;8447;52.630;4.734;2023-04-06T12:38:37;4.63;;;3.40;;
16667;SDS011;8447;52.630;4.734;2023-04-06T12:41:05;4.63;;;3.53;;
16667;SDS011;8447;52.630;4.734;2023-04-06T12:43:31;4.00;;;3.20;;
16667;SDS011;8447;52.630;4.734;2023-04-06T12:45:57;5.13;;;4.00;;
16667;SDS011;8447;52.630;4.734;2023-04-06T12:48:24;3.63;;;3.30;;
16667;SDS011;8447;52.630;4.734;2023-04-06T12:50:57;4.63;;;4.03;;
16667;SDS011;8447;52.630;4.734;2023-04-06T12:53:24;3.87;;;3.50;;
16667;SDS011;8447;52.630;4.734;2023-04-06T12:55:50;3.67;;;2.77;;
16667;SDS011;8447;52.630;4.734;2023-04-06T12:58:16;4.10;;;3.30;;
16667;SDS011;8447;52.630;4.734;2023-04-06T13:00:43;4.13;;;3.73;;
16667;SDS011;8447;52.630;4.734;2023-04-06T13:03:09;4.77;;;3.27;;
16667;SDS011;8447;52.630;4.734;2023-04-06T13:05:36;3.30;;;2.37;;
16667;SDS011;8447;52.630;4.734;2023-04-06T13:08:04;4.50;;;3.40;;
16667;SDS011;8447;52.630;4.734;2023-04-06T13:10:30;4.97;;;3.20;;
16667;SDS011;8447;52.630;4.734;2023-04-06T13:12:56;3.80;;;3.20;;
16667;SDS011;8447;52.630;4.734;2023-04-06T13:15:23;3.93;;;2.83;;
16667;SDS011;8447;52.630;4.734;2023-04-06T13:17:50;6.53;;;3.07;;
16667;SDS011;8447;52.630;4.734;2023-04-06T13:20:17;3.47;;;3.10;;
16667;SDS011;8447;52.630;4.734;2023-04-06T13:22:43;4.83;;;3.00;;
16667;SDS011;8447;52.630;4.734;2023-04-06T13:25:11;3.83;;;3.30;;
16667;SDS011;8447;52.630;4.734;2023-04-06T13:27:38;3.67;;;3.17;;
16667;SDS011;8447;52.630;4.734;2023-04-06T13:30:05;3.87;;;3.30;;
16667;SDS011;8447;52.630;4.734;2023-04-06T13:32:32;3.53;;;2.87;;
16667;SDS011;8447;52.630;4.734;2023-04-06T13:34:58;4.83;;;4.00;;
16667;SDS011;8447;52.630;4.734;2023-04-06T13:37:25;4.03;;;2.93;;
16667;SDS011;8447;52.630;4.734;2023-04-06T13:39:52;5.53;;;3.37;;
16667;SDS011;8447;52.630;4.734;2023-04-06T13:42:20;3.70;;;3.30;;
16667;SDS011;8447;52.630;4.734;2023-04-06T13:44:46;4.87;;;3.27;;
16667;SDS011;8447;52.630;4.734;2023-04-06T13:47:13;5.00;;;3.63;;
16667;SDS011;8447;52.630;4.734;2023-04-06T13:49:40;4.43;;;3.17;;
16667;SDS011;8447;52.630;4.734;2023-04-06T13:52:06;3.43;;;3.13;;
16667;SDS011;8447;52.630;4.734;2023-04-06T13:54:35;4.33;;;3.93;;
16667;SDS011;8447;52.630;4.734;2023-04-06T13:57:01;5.13;;;3.27;;
16667;SDS011;8447;52.630;4.734;2023-04-06T13:59:32;4.83;;;3.83;;
16667;SDS011;8447;52.630;4.734;2023-04-06T14:01:59;4.73;;;3.40;;
16667;SDS011;8447;52.630;4.734;2023-04-06T14:04:25;3.30;;;2.80;;
16667;SDS011;8447;52.630;4.734;2023-04-06T14:06:52;5.23;;;3.90;;
16667;SDS011;8447;52.630;4.734;2023-04-06T14:09:18;5.97;;;3.67;;
16667;SDS011;8447;52.630;4.734;2023-04-06T14:11:45;3.60;;;3.30;;
16667;SDS011;8447;52.630;4.734;2023-04-06T14:14:11;3.80;;;3.20;;
16667;SDS011;8447;52.630;4.734;2023-04-06T14:16:39;2.67;;;1.93;;
16667;SDS011;8447;52.630;4.734;2023-04-06T14:19:05;2.90;;;2.60;;
16667;SDS011;8447;52.630;4.734;2023-04-06T14:21:32;4.17;;;3.10;;
16667;SDS011;8447;52.630;4.734;2023-04-06T14:23:58;3.90;;;3.30;;
16667;SDS011;8447;52.630;4.734;2023-04-06T14:26:25;5.30;;;3.60;;
16667;SDS011;8447;52.630;4.734;2023-04-06T14:28:51;4.23;;;3.30;;
16667;SDS011;8447;52.630;4.734;2023-04-06T14:31:17;5.57;;;3.67;;
16667;SDS011;8447;52.630;4.734;2023-04-06T14:33:45;3.77;;;3.30;;
16667;SDS011;8447;52.630;4.734;2023-04-06T14:36:12;4.13;;;3.60;;
16667;SDS011;8447;52.630;4.734;2023-04-06T14:38:38;5.53;;;3.77;;
16667;SDS011;8447;52.630;4.734;2023-04-06T14:41:05;5.35;;;3.63;;
16667;SDS011;8447;52.630;4.734;2023-04-06T14:43:31;5.53;;;4.07;;
16667;SDS011;8447;52.630;4.734;2023-04-06T14:45:59;4.87;;;3.60;;